createdAt,value
2018-07-13T00:00:03.162Z,20.24
2018-07-13T00:02:31.976Z,20.23
2018-07-13T00:05:00.780Z,20.16
2018-07-13T00:07:29.493Z,20.25
2018-07-13T00:09:58.266Z,20.19
2018-07-13T00:12:27.186Z,20.34
2018-07-13T00:15:07.720Z,20.32
2018-07-13T00:17:36.743Z,20.18
2018-07-13T00:20:06.438Z,20.13
2018-07-13T00:22:35.796Z,20.24
2018-07-13T00:25:04.983Z,20.14
2018-07-13T00:27:33.690Z,19.99
2018-07-13T00:30:02.593Z,20.19
2018-07-13T00:32:31.514Z,20.12
2018-07-13T00:35:00.522Z,20.03
2018-07-13T00:37:29.430Z,20.17
2018-07-13T00:39:58.251Z,20.08
2018-07-13T00:42:27.081Z,20.13
2018-07-13T00:44:55.865Z,19.93
2018-07-13T00:47:24.633Z,19.96
2018-07-13T00:49:53.646Z,19.91
2018-07-13T00:52:22.493Z,20.02
2018-07-13T00:54:51.417Z,19.97
2018-07-13T00:57:20.234Z,19.92
2018-07-13T00:59:49.103Z,19.97
2018-07-13T01:02:18.217Z,19.75
2018-07-13T01:04:47.046Z,19.62
2018-07-13T01:07:15.878Z,19.56
2018-07-13T01:09:44.745Z,19.48
2018-07-13T01:12:13.458Z,19.44
2018-07-13T01:14:42.328Z,19.42
2018-07-13T01:17:11.080Z,19.39
2018-07-13T01:19:39.877Z,19.36
2018-07-13T01:22:08.788Z,19.35
2018-07-13T01:24:37.604Z,19.37
2018-07-13T01:27:06.318Z,19.37
2018-07-13T01:29:35.238Z,19.37
2018-07-13T01:32:04.278Z,19.29
2018-07-13T01:34:33.047Z,19.25
2018-07-13T01:37:01.835Z,19.20
2018-07-13T01:39:30.782Z,19.19
2018-07-13T01:41:59.540Z,19.15
2018-07-13T01:44:29.311Z,19.11
2018-07-13T01:46:58.337Z,19.09
2018-07-13T01:49:27.176Z,19.02
2018-07-13T01:51:56.044Z,18.99
2018-07-13T01:54:24.805Z,18.94
2018-07-13T01:56:53.585Z,18.91
2018-07-13T01:59:22.455Z,18.87
2018-07-13T02:01:51.542Z,18.81
2018-07-13T02:04:20.705Z,18.61
2018-07-13T02:06:49.622Z,18.65
2018-07-13T02:09:18.478Z,18.61
2018-07-13T02:11:47.590Z,18.53
2018-07-13T02:14:16.484Z,18.47
2018-07-13T02:16:45.326Z,18.49
2018-07-13T02:19:14.090Z,18.52
2018-07-13T02:21:42.827Z,18.55
2018-07-13T02:24:11.634Z,18.57
2018-07-13T02:26:40.549Z,18.56
2018-07-13T02:29:09.426Z,18.55
2018-07-13T02:31:38.214Z,18.50
2018-07-13T02:34:07.169Z,18.44
2018-07-13T02:36:36.007Z,18.37
2018-07-13T02:39:06.314Z,18.33
2018-07-13T02:41:35.111Z,18.28
2018-07-13T02:44:03.917Z,18.22
2018-07-13T02:46:33.102Z,18.21
2018-07-13T02:49:02.005Z,18.13
2018-07-13T02:51:30.847Z,18.08
2018-07-13T02:53:59.782Z,18.00
2018-07-13T02:56:28.584Z,17.96
2018-07-13T02:58:57.327Z,17.84
2018-07-13T03:01:26.260Z,17.83
2018-07-13T03:03:55.081Z,17.85
2018-07-13T03:06:24.149Z,17.86
2018-07-13T03:08:52.960Z,17.86
2018-07-13T03:11:21.890Z,17.86
2018-07-13T03:13:51.199Z,17.85
2018-07-13T03:16:20.040Z,17.79
2018-07-13T03:18:48.805Z,17.76
2018-07-13T03:21:17.607Z,17.77
2018-07-13T03:23:46.370Z,17.72
2018-07-13T03:26:15.126Z,17.71
2018-07-13T03:28:43.985Z,17.66
2018-07-13T03:31:12.673Z,17.63
2018-07-13T03:33:41.420Z,17.62
2018-07-13T03:36:10.178Z,17.61
2018-07-13T03:38:39.201Z,17.61
2018-07-13T03:41:08.008Z,17.63
2018-07-13T03:43:37.050Z,17.61
2018-07-13T03:46:06.890Z,17.60
2018-07-13T03:48:36.109Z,17.60
2018-07-13T03:51:04.979Z,17.53
2018-07-13T03:53:34.168Z,17.50
2018-07-13T03:56:03.596Z,17.47
2018-07-13T03:58:33.078Z,17.46
2018-07-13T04:01:01.911Z,17.45
2018-07-13T04:03:31.312Z,17.46
2018-07-13T04:06:00.567Z,17.45
2018-07-13T04:08:29.900Z,17.44
2018-07-13T04:10:59.105Z,17.44
2018-07-13T04:13:28.325Z,17.44
2018-07-13T04:15:57.917Z,17.46
2018-07-13T04:18:27.085Z,17.45
2018-07-13T04:20:56.403Z,17.47
2018-07-13T04:23:25.911Z,17.56
2018-07-13T04:25:55.110Z,17.32
2018-07-13T04:28:24.401Z,17.24
2018-07-13T04:30:53.781Z,17.22
2018-07-13T04:33:23.075Z,17.35
2018-07-13T04:35:52.207Z,17.44
2018-07-13T04:38:21.712Z,17.44
2018-07-13T04:40:51.397Z,17.53
2018-07-13T04:43:20.367Z,17.56
2018-07-13T04:45:49.642Z,17.60
2018-07-13T04:48:18.813Z,17.65
2018-07-13T04:50:47.995Z,17.72
2018-07-13T04:53:17.207Z,17.78
2018-07-13T04:55:46.167Z,17.80
2018-07-13T04:58:15.217Z,17.83
2018-07-13T05:00:44.628Z,17.87
2018-07-13T05:03:13.784Z,17.91
2018-07-13T05:05:43.206Z,17.96
2018-07-13T05:08:12.680Z,18.04
2018-07-13T05:10:42.336Z,18.11
2018-07-13T05:13:11.506Z,18.22
2018-07-13T05:15:40.658Z,18.22
2018-07-13T05:18:09.732Z,18.16
2018-07-13T05:20:38.802Z,18.23
2018-07-13T05:23:08.113Z,18.32
2018-07-13T05:25:37.181Z,18.35
2018-07-13T05:28:06.712Z,18.46
2018-07-13T05:30:35.943Z,18.51
2018-07-13T05:33:05.048Z,18.40
2018-07-13T05:35:34.464Z,18.52
2018-07-13T05:38:03.735Z,18.60
2018-07-13T05:40:33.081Z,18.67
2018-07-13T05:43:02.229Z,18.74
2018-07-13T05:45:31.404Z,18.85
2018-07-13T05:48:00.387Z,18.90
2018-07-13T05:50:29.662Z,19.00
2018-07-13T05:52:58.515Z,19.17
2018-07-13T05:55:27.918Z,19.29
2018-07-13T05:57:57.233Z,19.26
2018-07-13T06:00:26.322Z,19.49
2018-07-13T06:02:55.281Z,19.33
2018-07-13T06:05:24.342Z,19.43
2018-07-13T06:07:53.630Z,19.39
2018-07-13T06:10:22.493Z,19.30
2018-07-13T06:12:51.991Z,19.38
2018-07-13T06:15:20.731Z,19.53
2018-07-13T06:17:49.572Z,19.62
2018-07-13T06:20:18.401Z,19.71
2018-07-13T06:22:47.459Z,19.77
2018-07-13T06:25:16.547Z,20.09
2018-07-13T06:27:45.520Z,19.99
2018-07-13T06:30:14.432Z,19.86
2018-07-13T06:32:43.337Z,19.99
2018-07-13T06:35:12.312Z,20.23
2018-07-13T06:37:41.304Z,20.35
2018-07-13T06:40:10.244Z,20.42
2018-07-13T06:42:39.254Z,20.42
2018-07-13T06:45:08.484Z,20.49
2018-07-13T06:47:37.541Z,20.45
2018-07-13T06:50:06.931Z,20.49
2018-07-13T06:52:36.051Z,20.52
2018-07-13T06:55:05.234Z,20.50
2018-07-13T06:57:44.847Z,20.71
2018-07-13T07:01:01.927Z,20.67
2018-07-13T07:03:32.658Z,20.79
2018-07-13T07:06:10.877Z,20.98
2018-07-13T07:08:43.947Z,21.07
2018-07-13T07:11:12.899Z,20.91
2018-07-13T07:13:43.582Z,20.98
2018-07-13T07:16:12.532Z,21.21
2018-07-13T07:18:41.481Z,21.20
2018-07-13T07:21:10.583Z,21.10
2018-07-13T07:23:39.579Z,21.35
2018-07-13T07:26:08.668Z,21.35
2018-07-13T07:28:37.682Z,21.34
2018-07-13T07:31:06.785Z,21.47
2018-07-13T07:33:35.657Z,21.49
2018-07-13T07:36:04.651Z,21.54
2018-07-13T07:38:33.577Z,21.68
2018-07-13T07:41:02.318Z,21.74
2018-07-13T07:43:31.238Z,21.83
2018-07-13T07:46:00.563Z,21.88
2018-07-13T07:48:29.434Z,21.71
2018-07-13T07:50:58.320Z,21.95
2018-07-13T07:53:27.237Z,22.16
2018-07-13T07:55:56.000Z,21.98
2018-07-13T07:58:24.909Z,22.26
2018-07-13T08:00:53.781Z,22.32
2018-07-13T08:03:22.876Z,22.40
2018-07-13T08:05:51.903Z,22.46
2018-07-13T08:08:20.823Z,22.64
2018-07-13T08:10:49.709Z,22.44
2018-07-13T08:13:18.545Z,22.72
2018-07-13T08:15:47.530Z,22.84
2018-07-13T08:18:16.450Z,22.90
2018-07-13T08:20:47.248Z,22.85
2018-07-13T08:23:17.115Z,23.17
2018-07-13T08:25:48.410Z,23.28
2018-07-13T08:28:18.585Z,23.25
2018-07-13T08:30:55.679Z,23.32
2018-07-13T08:33:24.646Z,23.46
2018-07-13T08:35:53.542Z,23.56
2018-07-13T08:38:22.776Z,23.35
2018-07-13T08:40:51.516Z,23.38
2018-07-13T08:43:20.581Z,23.62
2018-07-13T08:45:50.197Z,23.64
2018-07-13T08:48:19.223Z,23.73
2018-07-13T08:50:48.385Z,23.90
2018-07-13T08:53:18.402Z,23.89
2018-07-13T08:55:47.433Z,23.55
2018-07-13T08:58:17.407Z,23.76
2018-07-13T09:00:46.287Z,23.75
2018-07-13T09:03:15.184Z,23.55
2018-07-13T09:05:44.066Z,23.69
2018-07-13T09:08:12.886Z,23.54
2018-07-13T09:10:42.252Z,23.47
2018-07-13T09:13:11.185Z,23.68
2018-07-13T09:15:40.154Z,23.80
2018-07-13T09:18:09.167Z,23.86
2018-07-13T09:20:38.039Z,23.88
2018-07-13T09:23:07.134Z,23.90
2018-07-13T09:25:36.205Z,23.43
2018-07-13T09:28:05.158Z,23.52
2018-07-13T09:30:34.045Z,23.47
2018-07-13T09:33:04.468Z,23.55
2018-07-13T09:35:33.278Z,23.50
2018-07-13T09:38:02.272Z,23.71
2018-07-13T09:40:31.590Z,23.85
2018-07-13T09:43:01.474Z,23.99
2018-07-13T09:45:30.256Z,24.21
2018-07-13T09:47:59.100Z,24.19
2018-07-13T09:50:28.375Z,24.46
2018-07-13T09:52:57.707Z,24.32
2018-07-13T09:55:26.702Z,24.72
2018-07-13T09:57:55.825Z,24.88
2018-07-13T10:00:28.887Z,24.84
2018-07-13T10:02:57.842Z,25.19
2018-07-13T10:05:26.726Z,24.91
2018-07-13T10:07:55.822Z,24.76
2018-07-13T10:10:24.651Z,24.53
2018-07-13T10:12:53.978Z,24.39
2018-07-13T10:15:23.209Z,24.86
2018-07-13T10:17:52.185Z,25.22
2018-07-13T10:20:21.031Z,25.51
2018-07-13T10:22:49.996Z,25.38
2018-07-13T10:25:18.955Z,25.20
2018-07-13T10:27:47.782Z,25.12
2018-07-13T10:30:16.898Z,24.92
2018-07-13T10:32:46.710Z,25.32
2018-07-13T10:35:16.276Z,25.61
2018-07-13T10:37:45.479Z,25.53
2018-07-13T10:40:14.490Z,25.57
2018-07-13T10:42:43.291Z,25.26
2018-07-13T10:45:12.166Z,25.48
2018-07-13T10:47:41.118Z,25.68
2018-07-13T10:50:10.124Z,25.87
2018-07-13T10:52:39.017Z,26.12
2018-07-13T10:55:08.026Z,25.82
2018-07-13T10:57:37.107Z,25.88
2018-07-13T11:00:05.921Z,26.33
2018-07-13T11:02:35.020Z,26.51
2018-07-13T11:05:04.087Z,26.83
2018-07-13T11:07:32.960Z,27.11
2018-07-13T11:10:01.943Z,26.80
2018-07-13T11:12:30.684Z,26.93
2018-07-13T11:14:59.536Z,27.00
2018-07-13T11:17:30.197Z,26.64
2018-07-13T11:19:59.093Z,26.68
2018-07-13T11:22:27.999Z,26.60
2018-07-13T11:24:56.789Z,26.67
2018-07-13T11:27:26.106Z,26.73
2018-07-13T11:29:54.903Z,26.95
2018-07-13T11:32:23.628Z,27.18
2018-07-13T11:34:52.518Z,27.12
2018-07-13T11:37:21.282Z,27.43
2018-07-13T11:39:49.989Z,27.72
2018-07-13T11:42:18.906Z,27.83
2018-07-13T11:44:47.675Z,27.15
2018-07-13T11:47:16.382Z,26.80
2018-07-13T11:49:45.221Z,27.57
2018-07-13T11:52:14.246Z,28.22
2018-07-13T11:54:43.208Z,29.17
2018-07-13T11:57:12.188Z,29.47
2018-07-13T11:59:41.106Z,29.66
2018-07-13T12:02:09.972Z,28.43
2018-07-13T12:04:38.890Z,27.71
2018-07-13T12:07:07.775Z,27.35
2018-07-13T12:09:36.585Z,27.48
2018-07-13T12:12:05.679Z,27.43
2018-07-13T12:14:34.469Z,27.29
2018-07-13T12:17:04.051Z,27.69
2018-07-13T12:19:33.194Z,27.91
2018-07-13T12:22:02.047Z,27.63
2018-07-13T12:24:30.958Z,27.75
2018-07-13T12:26:59.915Z,27.95
2018-07-13T12:29:28.729Z,28.41
2018-07-13T12:31:57.447Z,29.37
2018-07-13T12:34:26.416Z,30.22
2018-07-13T12:36:55.222Z,30.54
2018-07-13T12:39:24.008Z,31.13
2018-07-13T12:41:53.230Z,31.79
2018-07-13T12:44:22.105Z,32.85
2018-07-13T12:46:50.990Z,34.25
2018-07-13T12:49:19.741Z,32.89
2018-07-13T12:51:48.849Z,32.51
2018-07-13T12:54:17.994Z,33.17
2018-07-13T12:56:46.833Z,32.61
2018-07-13T12:59:15.592Z,34.44
2018-07-13T13:01:44.457Z,34.46
2018-07-13T13:04:13.367Z,35.89
2018-07-13T13:06:42.186Z,35.45
2018-07-13T13:09:11.441Z,32.15
2018-07-13T13:11:40.326Z,31.12
2018-07-13T13:14:09.170Z,30.71
2018-07-13T13:16:38.262Z,31.30
2018-07-13T13:19:07.583Z,31.34
2018-07-13T13:21:36.376Z,31.31
2018-07-13T13:24:04.995Z,29.99
2018-07-13T13:26:34.074Z,30.10
2018-07-13T13:29:02.962Z,31.91
2018-07-13T13:31:31.643Z,33.57
2018-07-13T13:34:00.547Z,32.10
2018-07-13T13:36:29.483Z,32.75
2018-07-13T13:38:58.335Z,32.04
2018-07-13T13:41:27.190Z,33.89
2018-07-13T13:43:55.952Z,34.90
2018-07-13T13:46:24.685Z,34.88
2018-07-13T13:48:53.656Z,32.96
2018-07-13T13:51:22.632Z,33.66
2018-07-13T13:53:51.489Z,34.16
2018-07-13T13:56:20.631Z,36.50
2018-07-13T13:58:49.542Z,35.91
2018-07-13T14:01:18.528Z,36.11
2018-07-13T14:03:47.382Z,36.08
2018-07-13T14:06:16.152Z,33.80
2018-07-13T14:08:45.015Z,33.44
2018-07-13T14:11:13.988Z,32.94
2018-07-13T14:13:43.076Z,31.87
2018-07-13T14:16:12.086Z,30.66
2018-07-13T14:18:41.034Z,29.82
2018-07-13T14:21:11.167Z,29.97
2018-07-13T14:23:40.054Z,30.04
2018-07-13T14:26:09.634Z,29.96
2018-07-13T14:28:38.696Z,29.91
2018-07-13T14:31:07.554Z,30.08
2018-07-13T14:33:36.518Z,29.62
2018-07-13T14:36:05.665Z,29.80
2018-07-13T14:38:34.583Z,29.56
2018-07-13T14:41:03.576Z,29.05
2018-07-13T14:43:32.342Z,29.24
2018-07-13T14:46:01.395Z,29.26
2018-07-13T14:48:30.244Z,28.80
2018-07-13T14:50:59.343Z,29.23
2018-07-13T14:53:28.124Z,29.24
2018-07-13T14:55:57.166Z,29.15
2018-07-13T14:58:26.330Z,29.39
2018-07-13T15:00:55.321Z,28.67
2018-07-13T15:03:24.090Z,28.76
2018-07-13T15:05:53.284Z,28.61
2018-07-13T15:08:21.993Z,28.90
2018-07-13T15:10:50.978Z,28.95
2018-07-13T15:13:19.795Z,28.98
2018-07-13T15:15:48.851Z,29.21
2018-07-13T15:18:17.786Z,29.03
2018-07-13T15:20:46.603Z,28.51
2018-07-13T15:23:15.866Z,28.30
2018-07-13T15:25:44.933Z,27.78
2018-07-13T15:28:13.663Z,28.09
2018-07-13T15:30:42.675Z,28.19
2018-07-13T15:33:11.910Z,28.03
2018-07-13T15:35:40.888Z,28.01
2018-07-13T15:38:09.835Z,28.09
2018-07-13T15:40:39.118Z,27.76
2018-07-13T15:43:08.260Z,28.15
2018-07-13T15:45:37.096Z,28.62
2018-07-13T15:48:06.073Z,28.99
2018-07-13T15:50:35.117Z,29.52
2018-07-13T15:53:05.135Z,30.11
2018-07-13T15:55:39.226Z,29.82
2018-07-13T15:58:08.901Z,29.93
2018-07-13T16:00:37.908Z,29.85
2018-07-13T16:03:06.997Z,29.29
2018-07-13T16:05:36.428Z,28.99
2018-07-13T16:08:05.118Z,28.65
2018-07-13T16:10:34.280Z,27.79
2018-07-13T16:13:03.198Z,27.57
2018-07-13T16:15:32.424Z,27.72
2018-07-13T16:18:01.242Z,27.80
2018-07-13T16:20:30.010Z,27.64
2018-07-13T16:22:59.066Z,27.59
2018-07-13T16:25:28.183Z,27.28
2018-07-13T16:27:57.299Z,27.37
2018-07-13T16:30:26.371Z,27.59
2018-07-13T16:32:55.187Z,27.65
2018-07-13T16:35:23.987Z,27.72
2018-07-13T16:37:53.027Z,27.93
2018-07-13T16:40:22.035Z,28.08
2018-07-13T16:42:51.638Z,28.39
2018-07-13T16:45:20.685Z,28.54
2018-07-13T16:47:49.508Z,28.61
2018-07-13T16:50:18.434Z,28.73
2018-07-13T16:52:47.730Z,28.86
2018-07-13T16:55:16.556Z,28.94
2018-07-13T16:57:45.401Z,29.14
2018-07-13T17:00:14.232Z,28.87
2018-07-13T17:02:43.183Z,28.90
2018-07-13T17:05:12.030Z,28.73
2018-07-13T17:07:40.841Z,28.71
2018-07-13T17:10:09.913Z,28.62
2018-07-13T17:12:38.882Z,28.65
2018-07-13T17:15:08.082Z,28.84
2018-07-13T17:17:37.466Z,28.98
2018-07-13T17:20:06.374Z,29.34
2018-07-13T17:22:35.102Z,28.94
2018-07-13T17:25:03.962Z,29.14
2018-07-13T17:27:32.893Z,28.86
2018-07-13T17:30:01.888Z,28.94
2018-07-13T17:32:30.997Z,28.40
2018-07-13T17:34:59.842Z,28.31
2018-07-13T17:37:29.342Z,27.76
2018-07-13T17:39:58.595Z,27.76
2018-07-13T17:42:27.635Z,27.60
2018-07-13T17:44:56.615Z,27.80
2018-07-13T17:47:25.787Z,27.37
2018-07-13T17:49:54.750Z,27.62
2018-07-13T17:52:23.771Z,27.56
2018-07-13T17:54:52.692Z,27.47
2018-07-13T17:57:21.666Z,27.39
2018-07-13T17:59:50.478Z,27.40
2018-07-13T18:02:19.298Z,27.20
2018-07-13T18:04:48.260Z,27.10
2018-07-13T18:07:17.250Z,27.05
2018-07-13T18:09:46.269Z,26.82
2018-07-13T18:12:15.219Z,26.64
2018-07-13T18:14:44.110Z,26.57
2018-07-13T18:17:13.125Z,26.32
2018-07-13T18:19:42.225Z,26.28
2018-07-13T18:22:11.002Z,26.21
2018-07-13T18:24:39.820Z,26.18
2018-07-13T18:27:08.780Z,26.05
2018-07-13T18:29:37.746Z,26.02
2018-07-13T18:32:07.664Z,25.89
2018-07-13T18:34:36.836Z,25.83
2018-07-13T18:37:05.805Z,25.81
2018-07-13T18:39:34.613Z,25.75
2018-07-13T18:42:03.339Z,25.68
2018-07-13T18:44:32.268Z,25.71
2018-07-13T18:47:01.210Z,25.59
2018-07-13T18:49:30.127Z,25.64
2018-07-13T18:51:59.026Z,25.58
2018-07-13T18:54:27.805Z,25.50
2018-07-13T18:56:56.720Z,25.54
2018-07-13T18:59:25.518Z,25.51
2018-07-13T19:01:54.463Z,25.51
2018-07-13T19:04:23.898Z,25.39
2018-07-13T19:06:53.100Z,25.39
2018-07-13T19:09:22.076Z,25.21
2018-07-13T19:11:51.176Z,25.19
2018-07-13T19:14:19.985Z,25.04
2018-07-13T19:16:48.911Z,25.00
2018-07-13T19:19:17.840Z,24.87
2018-07-13T19:21:46.842Z,24.90
2018-07-13T19:24:15.882Z,24.82
2018-07-13T19:26:44.694Z,24.78
2018-07-13T19:29:14.127Z,24.74
2018-07-13T19:31:43.094Z,24.62
2018-07-13T19:34:12.103Z,24.50
2018-07-13T19:36:41.342Z,24.35
2018-07-13T19:39:10.239Z,24.24
2018-07-13T19:41:39.318Z,24.10
2018-07-13T19:44:08.484Z,23.95
2018-07-13T19:46:37.440Z,23.80
2018-07-13T19:49:06.626Z,23.78
2018-07-13T19:51:35.506Z,23.78
2018-07-13T19:54:04.641Z,23.76
2018-07-13T19:56:33.382Z,23.72
2018-07-13T19:59:02.154Z,23.67
2018-07-13T20:01:31.071Z,23.52
2018-07-13T20:04:00.065Z,23.49
2018-07-13T20:06:29.042Z,23.40
2018-07-13T20:08:58.236Z,23.30
2018-07-13T20:11:27.340Z,23.24
2018-07-13T20:13:56.385Z,23.17
2018-07-13T20:16:25.227Z,23.10
2018-07-13T20:18:54.215Z,23.05
2018-07-13T20:21:23.003Z,23.02
2018-07-13T20:23:52.168Z,22.98
2018-07-13T20:26:21.627Z,22.97
2018-07-13T20:28:50.480Z,22.91
2018-07-13T20:31:19.711Z,22.89
2018-07-13T20:33:48.781Z,22.89
2018-07-13T20:36:17.820Z,22.86
2018-07-13T20:38:46.936Z,22.79
2018-07-13T20:41:15.704Z,22.73
2018-07-13T20:43:44.645Z,22.65
2018-07-13T20:46:13.544Z,22.59
2018-07-13T20:48:42.742Z,22.56
2018-07-13T20:51:11.751Z,22.55
2018-07-13T20:53:40.521Z,22.45
2018-07-13T20:56:09.419Z,22.46
2018-07-13T20:58:38.430Z,22.46
2018-07-13T21:01:07.624Z,22.43
2018-07-13T21:03:36.705Z,22.36
2018-07-13T21:06:05.573Z,22.37
2018-07-13T21:08:34.630Z,22.31
2018-07-13T21:11:03.669Z,22.27
2018-07-13T21:13:32.559Z,22.24
2018-07-13T21:16:01.977Z,22.17
2018-07-13T21:18:31.367Z,22.12
2018-07-13T21:21:00.307Z,22.04
2018-07-13T21:23:29.447Z,21.89
2018-07-13T21:25:58.208Z,21.85
2018-07-13T21:28:27.382Z,21.76
2018-07-13T21:30:56.321Z,21.75
2018-07-13T21:33:25.181Z,21.70
2018-07-13T21:35:54.462Z,21.61
2018-07-13T21:38:23.221Z,21.58
2018-07-13T21:40:52.002Z,21.54
2018-07-13T21:43:21.070Z,21.50
2018-07-13T21:45:49.782Z,21.47
2018-07-13T21:48:19.327Z,21.46
2018-07-13T21:50:48.231Z,21.44
2018-07-13T21:53:17.187Z,21.41
2018-07-13T21:55:46.212Z,21.35
2018-07-13T21:58:15.071Z,21.27
2018-07-13T22:00:44.192Z,21.20
2018-07-13T22:03:12.946Z,21.15
2018-07-13T22:05:41.893Z,21.11
2018-07-13T22:08:10.645Z,21.14
2018-07-13T22:10:39.585Z,21.13
2018-07-13T22:13:08.564Z,21.13
2018-07-13T22:15:37.438Z,21.08
2018-07-13T22:18:06.419Z,21.03
2018-07-13T22:20:35.262Z,21.10
2018-07-13T22:23:03.948Z,21.09
2018-07-13T22:25:33.047Z,21.11
2018-07-13T22:28:02.119Z,21.10
2018-07-13T22:30:31.024Z,21.12
2018-07-13T22:32:59.869Z,21.08
2018-07-13T22:35:28.637Z,21.01
2018-07-13T22:37:57.713Z,20.96
2018-07-13T22:40:26.594Z,20.93
2018-07-13T22:42:55.362Z,20.88
2018-07-13T22:45:24.431Z,20.81
2018-07-13T22:47:53.317Z,20.70
2018-07-13T22:50:22.322Z,20.67
2018-07-13T22:52:51.234Z,20.63
2018-07-13T22:55:20.127Z,20.60
2018-07-13T22:57:48.982Z,20.89
2018-07-13T23:00:18.108Z,20.67
2018-07-13T23:02:46.930Z,20.59
2018-07-13T23:05:15.638Z,20.52
2018-07-13T23:07:44.496Z,20.46
2018-07-13T23:10:13.555Z,20.45
2018-07-13T23:12:42.310Z,20.47
2018-07-13T23:15:11.542Z,20.47
2018-07-13T23:17:40.421Z,20.44
2018-07-13T23:20:09.339Z,20.40
2018-07-13T23:22:38.366Z,20.35
2018-07-13T23:25:07.363Z,20.34
2018-07-13T23:27:36.314Z,20.32
2018-07-13T23:30:05.121Z,20.29
2018-07-13T23:32:34.086Z,20.24
2018-07-13T23:35:02.810Z,20.21
2018-07-13T23:37:31.553Z,20.16
2018-07-13T23:40:00.759Z,20.13
2018-07-13T23:42:29.677Z,20.11
2018-07-13T23:44:58.467Z,20.07
2018-07-13T23:47:27.434Z,20.03
2018-07-13T23:49:56.332Z,19.98
2018-07-13T23:52:25.238Z,19.98
2018-07-13T23:54:54.090Z,19.87
2018-07-13T23:57:22.973Z,19.84
2018-07-13T23:59:51.901Z,19.84
